createdAt,value
2018-12-23T00:02:21.296Z,101470.66
2018-12-23T00:04:49.576Z,101469.54
2018-12-23T00:07:17.872Z,101480.16
2018-12-23T00:09:46.188Z,101477.67
2018-12-23T00:12:14.482Z,101483.94
2018-12-23T00:14:42.863Z,101479.16
2018-12-23T00:17:11.151Z,101490.85
2018-12-23T00:19:39.454Z,101484.04
2018-12-23T00:22:07.753Z,101489.74
2018-12-23T00:24:36.057Z,101498.16
2018-12-23T00:27:04.534Z,101501.91
2018-12-23T00:29:32.832Z,101494.52
2018-12-23T00:32:01.115Z,101488.64
2018-12-23T00:34:29.392Z,101492.12
2018-12-23T00:36:57.689Z,101496.84
2018-12-23T00:39:26.094Z,101495.17
2018-12-23T00:41:54.408Z,101499.54
2018-12-23T00:44:22.692Z,101498.36
2018-12-23T00:46:50.988Z,101495.17
2018-12-23T00:49:19.436Z,101500.22
2018-12-23T00:51:47.742Z,101513.11
2018-12-23T00:54:16.016Z,101496.16
2018-12-23T00:56:44.337Z,101491.56
2018-12-23T00:59:12.629Z,101477.91
2018-12-23T01:01:41.265Z,101487.41
2018-12-23T01:04:09.552Z,101478.75
2018-12-23T01:06:37.942Z,101487.65
2018-12-23T01:09:07.163Z,101492.13
2018-12-23T01:11:35.458Z,101495.23
2018-12-23T01:14:03.780Z,101499.23
2018-12-23T01:16:32.141Z,101501.33
2018-12-23T01:19:00.458Z,101500.83
2018-12-23T01:21:28.808Z,101501.73
2018-12-23T01:23:57.109Z,101512.08
2018-12-23T01:26:25.385Z,101523.28
2018-12-23T01:28:53.718Z,101520.69
2018-12-23T01:31:22.216Z,101529.56
2018-12-23T01:33:50.488Z,101524.50
2018-12-23T01:36:18.772Z,101520.28
2018-12-23T01:38:47.298Z,101515.27
2018-12-23T01:41:15.569Z,101525.14
2018-12-23T01:43:43.879Z,101526.34
2018-12-23T01:46:12.179Z,101520.32
2018-12-23T01:48:40.484Z,101522.65
2018-12-23T01:51:08.883Z,101515.58
2018-12-23T01:53:37.533Z,101514.41
2018-12-23T01:56:05.856Z,101512.13
2018-12-23T01:58:34.161Z,101512.03
2018-12-23T02:01:02.478Z,101519.41
2018-12-23T02:03:30.756Z,101521.91
2018-12-23T02:05:59.057Z,101527.93
2018-12-23T02:08:27.419Z,101528.09
2018-12-23T02:10:55.729Z,101520.95
2018-12-23T02:13:24.117Z,101520.00
2018-12-23T02:15:52.414Z,101529.42
2018-12-23T02:18:20.708Z,101535.88
2018-12-23T02:20:49.013Z,101533.06
2018-12-23T02:23:17.819Z,101530.78
2018-12-23T02:25:46.157Z,101536.70
2018-12-23T02:28:14.479Z,101549.42
2018-12-23T02:30:42.780Z,101539.40
2018-12-23T02:33:11.073Z,101533.62
2018-12-23T02:35:39.399Z,101546.64
2018-12-23T02:38:07.679Z,101553.23
2018-12-23T02:40:35.971Z,101556.61
2018-12-23T02:43:04.334Z,101552.83
2018-12-23T02:45:32.899Z,101554.33
2018-12-23T02:48:01.214Z,101553.58
2018-12-23T02:50:29.937Z,101555.75
2018-12-23T02:52:58.236Z,101549.98
2018-12-23T02:55:26.508Z,101550.99
2018-12-23T02:57:54.825Z,101550.72
2018-12-23T03:00:23.101Z,101539.77
2018-12-23T03:02:51.430Z,101540.84
2018-12-23T03:05:19.696Z,101533.66
2018-12-23T03:07:48.010Z,101538.44
2018-12-23T03:10:16.666Z,101537.98
2018-12-23T03:12:45.090Z,101531.63
2018-12-23T03:15:13.472Z,101524.90
2018-12-23T03:17:41.741Z,101520.34
2018-12-23T03:20:10.098Z,101515.38
2018-12-23T03:22:38.471Z,101517.11
2018-12-23T03:25:06.900Z,101523.30
2018-12-23T03:27:35.192Z,101528.98
2018-12-23T03:30:04.068Z,101525.85
2018-12-23T03:32:32.568Z,101517.47
2018-12-23T03:35:00.912Z,101508.50
2018-12-23T03:37:29.294Z,101508.09
2018-12-23T03:39:57.584Z,101514.04
2018-12-23T03:42:25.860Z,101524.50
2018-12-23T03:44:54.171Z,101517.14
2018-12-23T03:47:22.449Z,101503.55
2018-12-23T03:49:50.729Z,101512.20
2018-12-23T03:52:19.034Z,101516.80
2018-12-23T03:54:47.336Z,101519.44
2018-12-23T03:57:15.688Z,101516.38
2018-12-23T03:59:44.020Z,101522.16
2018-12-23T04:02:12.310Z,101524.13
2018-12-23T04:04:40.653Z,101520.97
2018-12-23T04:07:08.964Z,101513.48
2018-12-23T04:09:37.372Z,101509.63
2018-12-23T04:12:05.769Z,101514.52
2018-12-23T04:14:34.082Z,101519.01
2018-12-23T04:17:02.369Z,101518.85
2018-12-23T04:19:31.386Z,101518.85
2018-12-23T04:21:59.699Z,101525.86
2018-12-23T04:24:27.993Z,101522.05
2018-12-23T04:26:56.286Z,101522.70
2018-12-23T04:29:24.656Z,101520.48
2018-12-23T04:31:52.936Z,101512.27
2018-12-23T04:34:21.217Z,101505.86
2018-12-23T04:36:49.531Z,101513.88
2018-12-23T04:39:17.810Z,101512.73
2018-12-23T04:41:46.102Z,101503.20
2018-12-23T04:44:14.386Z,101506.33
2018-12-23T04:46:42.694Z,101498.96
2018-12-23T04:49:11.074Z,101497.56
2018-12-23T04:51:39.805Z,101495.11
2018-12-23T04:54:08.052Z,101498.82
2018-12-23T04:56:36.360Z,101492.34
2018-12-23T04:59:04.662Z,101485.09
2018-12-23T05:01:32.970Z,101479.64
2018-12-23T05:04:01.287Z,101475.13
2018-12-23T05:06:30.086Z,101488.14
2018-12-23T05:08:58.375Z,101484.18
2018-12-23T05:11:26.693Z,101485.28
2018-12-23T05:13:55.025Z,101492.92
2018-12-23T05:16:23.344Z,101490.28
2018-12-23T05:18:51.624Z,101481.42
2018-12-23T05:21:19.923Z,101488.02
2018-12-23T05:23:48.229Z,101482.38
2018-12-23T05:26:16.520Z,101485.28
2018-12-23T05:28:45.190Z,101482.86
2018-12-23T05:31:13.466Z,101484.55
2018-12-23T05:33:41.761Z,101484.24
2018-12-23T05:36:10.028Z,101476.88
2018-12-23T05:38:38.764Z,101475.38
2018-12-23T05:41:07.220Z,101476.70
2018-12-23T05:43:35.529Z,101477.98
2018-12-23T05:46:03.819Z,101479.64
2018-12-23T05:48:32.120Z,101478.84
2018-12-23T05:51:00.405Z,101479.03
2018-12-23T05:53:28.759Z,101475.38
2018-12-23T05:55:56.588Z,101478.72
2018-12-23T05:58:24.894Z,101476.97
2018-12-23T06:00:53.193Z,101476.79
2018-12-23T06:03:21.463Z,101475.04
2018-12-23T06:05:49.786Z,101473.59
2018-12-23T06:08:18.102Z,101473.66
2018-12-23T06:10:46.411Z,101479.55
2018-12-23T06:13:14.754Z,101472.95
2018-12-23T06:15:43.040Z,101475.69
2018-12-23T06:18:11.310Z,101471.42
2018-12-23T06:20:39.599Z,101472.92
2018-12-23T06:23:07.896Z,101469.91
2018-12-23T06:25:36.174Z,101475.59
2018-12-23T06:28:04.474Z,101481.42
2018-12-23T06:30:32.749Z,101485.34
2018-12-23T06:33:01.062Z,101482.98
2018-12-23T06:35:29.425Z,101479.24
2018-12-23T06:37:57.704Z,101481.48
2018-12-23T06:40:26.027Z,101477.95
2018-12-23T06:42:54.298Z,101476.45
2018-12-23T06:45:22.597Z,101475.89
2018-12-23T06:47:51.199Z,101476.94
2018-12-23T06:50:19.461Z,101474.94
2018-12-23T06:52:47.756Z,101469.84
2018-12-23T06:55:16.077Z,101484.97
2018-12-23T06:57:44.393Z,101484.78
2018-12-23T07:00:12.837Z,101485.24
2018-12-23T07:02:41.112Z,101484.20
2018-12-23T07:05:09.404Z,101475.41
2018-12-23T07:07:37.702Z,101477.19
2018-12-23T07:10:08.243Z,101477.09
2018-12-23T07:12:36.555Z,101484.25
2018-12-23T07:15:04.891Z,101477.28
2018-12-23T07:17:33.564Z,101476.55
2018-12-23T07:20:01.918Z,101487.20
2018-12-23T07:22:30.334Z,101481.37
2018-12-23T07:24:58.972Z,101474.50
2018-12-23T07:27:27.278Z,101480.73
2018-12-23T07:29:55.805Z,101478.88
2018-12-23T07:32:24.116Z,101471.00
2018-12-23T07:34:52.391Z,101473.33
2018-12-23T07:37:27.405Z,101474.55
2018-12-23T07:39:50.949Z,101471.45
2018-12-23T07:42:19.249Z,101473.41
2018-12-23T07:44:47.539Z,101466.63
2018-12-23T07:47:15.841Z,101468.68
2018-12-23T07:49:44.117Z,101466.69
2018-12-23T07:52:12.402Z,101457.94
2018-12-23T07:54:40.695Z,101459.77
2018-12-23T07:57:09.107Z,101462.04
2018-12-23T07:59:37.404Z,101466.00
2018-12-23T08:02:05.746Z,101466.49
2018-12-23T08:04:34.117Z,101465.53
2018-12-23T08:07:02.403Z,101475.42
2018-12-23T08:09:30.724Z,101471.19
2018-12-23T08:11:59.160Z,101465.45
2018-12-23T08:14:27.432Z,101474.52
2018-12-23T08:16:55.748Z,101470.09
2018-12-23T08:19:24.052Z,101466.08
2018-12-23T08:21:52.329Z,101469.59
2018-12-23T08:24:20.708Z,101465.27
2018-12-23T08:26:49.016Z,101463.76
2018-12-23T08:29:17.292Z,101459.43
2018-12-23T08:31:45.602Z,101453.66
2018-12-23T08:34:13.914Z,101440.94
2018-12-23T08:36:42.201Z,101447.69
2018-12-23T08:39:10.509Z,101441.25
2018-12-23T08:41:38.761Z,101447.59
2018-12-23T08:44:07.216Z,101447.53
2018-12-23T08:46:39.269Z,101440.44
2018-12-23T08:49:05.764Z,101440.70
2018-12-23T08:51:34.055Z,101444.84
2018-12-23T08:54:02.446Z,101446.56
2018-12-23T08:56:30.734Z,101448.11
2018-12-23T08:58:59.035Z,101436.48
2018-12-23T09:01:27.352Z,101438.84
2018-12-23T09:03:55.613Z,101430.72
2018-12-23T09:06:23.949Z,101431.81
2018-12-23T09:08:52.238Z,101431.31
2018-12-23T09:11:20.528Z,101433.92
2018-12-23T09:13:48.801Z,101432.73
2018-12-23T09:16:18.031Z,101432.67
2018-12-23T09:18:46.469Z,101432.30
2018-12-23T09:21:14.844Z,101429.92
2018-12-23T09:23:43.111Z,101427.91
2018-12-23T09:26:11.412Z,101414.78
2018-12-23T09:28:39.712Z,101421.30
2018-12-23T09:31:08.032Z,101427.31
2018-12-23T09:33:36.400Z,101423.99
2018-12-23T09:36:04.852Z,101419.09
2018-12-23T09:38:33.115Z,101425.11
2018-12-23T09:41:01.405Z,101413.42
2018-12-23T09:43:29.682Z,101413.42
2018-12-23T09:45:57.989Z,101413.05
2018-12-23T09:48:26.272Z,101408.02
2018-12-23T09:50:54.584Z,101407.95
2018-12-23T09:53:22.877Z,101402.20
2018-12-23T09:55:51.147Z,101401.49
2018-12-23T09:58:19.460Z,101403.70
2018-12-23T10:00:47.717Z,101393.58
2018-12-23T10:03:16.025Z,101393.94
2018-12-23T10:05:44.312Z,101391.79
2018-12-23T10:08:12.614Z,101387.13
2018-12-23T10:10:40.905Z,101383.77
2018-12-23T10:13:09.500Z,101391.31
2018-12-23T10:15:38.098Z,101383.98
2018-12-23T10:18:06.401Z,101377.00
2018-12-23T10:20:35.066Z,101377.98
2018-12-23T10:23:03.381Z,101371.86
2018-12-23T10:25:31.685Z,101374.51
2018-12-23T10:27:59.965Z,101367.40
2018-12-23T10:31:04.843Z,101364.30
2018-12-23T10:33:34.244Z,101353.81
2018-12-23T10:36:03.673Z,101354.53
2018-12-23T10:38:33.092Z,101343.59
2018-12-23T10:41:02.488Z,101341.30
2018-12-23T10:43:31.966Z,101340.12
2018-12-23T10:46:01.367Z,101333.16
2018-12-23T10:48:30.970Z,101327.97
2018-12-23T10:51:00.414Z,101320.03
2018-12-23T10:53:29.814Z,101321.46
2018-12-23T10:55:59.225Z,101311.75
2018-12-23T10:58:29.030Z,101306.95
2018-12-23T11:00:58.706Z,101296.23
2018-12-23T11:03:28.255Z,101292.16
2018-12-23T11:05:57.672Z,101283.44
2018-12-23T11:08:27.360Z,101283.44
2018-12-23T11:10:57.007Z,101266.12
2018-12-23T11:13:26.448Z,101265.23
2018-12-23T11:15:55.894Z,101265.23
2018-12-23T11:18:25.654Z,101257.77
2018-12-23T11:20:55.146Z,101255.02
2018-12-23T11:23:24.572Z,101242.97
2018-12-23T11:25:54.380Z,101235.99
2018-12-23T11:28:23.827Z,101229.48
2018-12-23T11:30:53.218Z,101221.08
2018-12-23T11:33:22.857Z,101224.80
2018-12-23T11:35:52.247Z,101218.55
2018-12-23T11:38:21.666Z,101223.37
2018-12-23T11:40:51.084Z,101217.75
2018-12-23T11:43:20.476Z,101217.75
2018-12-23T11:45:49.969Z,101219.92
2018-12-23T11:48:19.419Z,101209.23
2018-12-23T11:50:48.871Z,101209.84
2018-12-23T11:53:18.475Z,101198.29
2018-12-23T11:55:47.892Z,101192.50
2018-12-23T11:58:17.595Z,101191.55
2018-12-23T12:00:46.998Z,101181.08
2018-12-23T12:03:16.591Z,101180.09
2018-12-23T12:05:45.982Z,101181.78
2018-12-23T12:08:15.420Z,101178.27
2018-12-23T12:10:44.860Z,101172.40
2018-12-23T12:13:14.259Z,101167.33
2018-12-23T12:15:43.668Z,101162.01
2018-12-23T12:18:13.127Z,101161.70
2018-12-23T12:20:42.529Z,101160.59
2018-12-23T12:23:12.251Z,101154.70
2018-12-23T12:25:41.655Z,101150.16
2018-12-23T12:28:11.086Z,101150.39
2018-12-23T12:30:40.467Z,101148.96
2018-12-23T12:33:09.991Z,101147.28
2018-12-23T12:35:39.588Z,101141.75
2018-12-23T12:38:09.171Z,101140.55
2018-12-23T12:40:38.681Z,101120.80
2018-12-23T12:43:08.112Z,101125.24
2018-12-23T12:45:37.510Z,101111.17
2018-12-23T12:48:06.933Z,101105.76
2018-12-23T12:50:36.338Z,101105.39
2018-12-23T12:53:05.769Z,101100.45
2018-12-23T12:55:35.162Z,101096.02
2018-12-23T12:58:04.546Z,101092.75
2018-12-23T13:00:33.963Z,101087.44
2018-12-23T13:03:03.581Z,101071.94
2018-12-23T13:05:33.003Z,101071.94
2018-12-23T13:08:02.396Z,101060.55
2018-12-23T13:10:31.810Z,101048.74
2018-12-23T13:13:01.196Z,100993.23
2018-12-23T13:15:30.639Z,101036.98
2018-12-23T13:18:00.042Z,101034.22
2018-12-23T13:20:29.466Z,101027.96
2018-12-23T13:22:58.858Z,101014.25
2018-12-23T13:25:28.279Z,101019.05
2018-12-23T13:27:57.666Z,101015.69
2018-12-23T13:30:27.083Z,101004.16
2018-12-23T13:32:56.473Z,100988.55
2018-12-23T13:35:26.011Z,100993.13
2018-12-23T13:37:55.403Z,100997.92
2018-12-23T13:40:33.991Z,100974.84
2018-12-23T13:43:26.178Z,100974.84
2018-12-23T13:46:07.671Z,100969.80
2018-12-23T13:48:40.121Z,100973.54
2018-12-23T13:51:31.202Z,100967.54
2018-12-23T13:54:24.733Z,100967.54
2018-12-23T13:57:13.397Z,100968.98
2018-12-23T13:59:51.919Z,100962.37
2018-12-23T14:02:30.593Z,100953.72
2018-12-23T14:05:14.809Z,100953.97
2018-12-23T14:07:56.463Z,100959.48
2018-12-23T14:10:37.518Z,100955.16
2018-12-23T14:13:06.895Z,100951.80
2018-12-23T14:15:36.326Z,100945.91
2018-12-23T14:18:05.717Z,100933.28
2018-12-23T14:20:35.152Z,100933.06
2018-12-23T14:23:04.604Z,100921.28
2018-12-23T14:25:33.967Z,100916.11
2018-12-23T14:28:05.590Z,100902.54
2018-12-23T14:30:34.604Z,100895.59
2018-12-23T14:33:04.009Z,100899.20
2018-12-23T14:35:33.400Z,100893.80
2018-12-23T14:38:03.016Z,100897.64
2018-12-23T14:40:32.631Z,100873.27
2018-12-23T14:43:03.606Z,100873.27
2018-12-23T14:45:36.186Z,100863.64
2018-12-23T14:48:05.741Z,100862.20
2018-12-23T14:50:35.129Z,100862.09
2018-12-23T14:53:04.566Z,100865.44
2018-12-23T14:55:34.278Z,100868.31
2018-12-23T14:58:03.677Z,100857.75
2018-12-23T15:00:33.090Z,100842.88
2018-12-23T15:03:02.536Z,100833.84
2018-12-23T15:05:32.032Z,100826.29
2018-12-23T15:08:01.500Z,100826.56
2018-12-23T15:10:30.919Z,100831.34
2018-12-23T15:13:00.398Z,100827.02
2018-12-23T15:15:29.791Z,100820.78
2018-12-23T15:17:59.213Z,100818.14
2018-12-23T15:20:28.763Z,100816.90
2018-12-23T15:22:58.257Z,100807.08
2018-12-23T15:25:27.649Z,100808.36
2018-12-23T15:27:57.072Z,100800.09
2018-12-23T15:30:28.124Z,100807.78
2018-12-23T15:32:57.525Z,100793.77
2018-12-23T15:35:26.939Z,100797.27
2018-12-23T15:37:56.316Z,100783.65
2018-12-23T15:40:25.736Z,100783.65
2018-12-23T15:42:55.137Z,100774.05
2018-12-23T15:45:24.606Z,100768.54
2018-12-23T15:47:53.959Z,100753.06
2018-12-23T15:50:23.410Z,100748.83
2018-12-23T15:52:52.797Z,100741.61
2018-12-23T15:55:22.398Z,100738.28
2018-12-23T15:57:51.782Z,100743.09
2018-12-23T16:00:21.189Z,100733.47
2018-12-23T16:02:50.590Z,100735.63
2018-12-23T16:05:20.046Z,100736.96
2018-12-23T16:07:49.465Z,100732.42
2018-12-23T16:10:18.902Z,100733.06
2018-12-23T16:12:48.609Z,100736.28
2018-12-23T16:15:18.006Z,100735.09
2018-12-23T16:17:47.430Z,100728.50
2018-12-23T16:20:16.838Z,100711.55
2018-12-23T16:22:46.240Z,100718.16
2018-12-23T16:25:15.637Z,100702.54
2018-12-23T16:27:45.049Z,100684.80
2018-12-23T16:30:14.443Z,100689.38
2018-12-23T16:32:43.852Z,100680.49
2018-12-23T16:35:13.279Z,100669.67
2018-12-23T16:37:42.839Z,100665.27
2018-12-23T16:40:12.712Z,100666.20
2018-12-23T16:42:42.188Z,100660.33
2018-12-23T16:45:11.596Z,100667.22
2018-12-23T16:47:41.014Z,100665.49
2018-12-23T16:50:10.417Z,100662.36
2018-12-23T16:52:39.815Z,100656.23
2018-12-23T16:55:09.494Z,100651.04
2018-12-23T16:57:38.894Z,100637.45
2018-12-23T17:00:11.883Z,100638.56
2018-12-23T17:02:41.316Z,100640.74
2018-12-23T17:05:10.978Z,100636.52
2018-12-23T17:07:40.417Z,100629.23
2018-12-23T17:10:10.198Z,100628.59
2018-12-23T17:12:39.782Z,100630.70
2018-12-23T17:15:09.228Z,100623.48
2018-12-23T17:17:38.644Z,100634.05
2018-12-23T17:20:10.614Z,100623.28
2018-12-23T17:22:40.020Z,100627.21
2018-12-23T17:25:09.916Z,100622.28
2018-12-23T17:27:39.377Z,100616.67
2018-12-23T17:30:09.235Z,100607.55
2018-12-23T17:32:38.648Z,100604.44
2018-12-23T17:35:08.039Z,100602.65
2018-12-23T17:37:37.462Z,100601.30
2018-12-23T17:40:16.320Z,100601.88
2018-12-23T17:42:39.013Z,100605.73
2018-12-23T17:45:08.472Z,100601.59
2018-12-23T17:47:37.894Z,100599.89
2018-12-23T17:50:09.320Z,100599.89
2018-12-23T17:52:38.747Z,100600.28
2018-12-23T17:55:08.157Z,100584.33
2018-12-23T17:57:37.644Z,100576.86
2018-12-23T18:00:07.585Z,100573.67
2018-12-23T18:02:37.012Z,100573.67
2018-12-23T18:05:06.813Z,100595.70
2018-12-23T18:07:36.472Z,100592.55
2018-12-23T18:10:06.839Z,100596.05
2018-12-23T18:12:36.275Z,100586.84
2018-12-23T18:15:06.802Z,100587.00
2018-12-23T18:17:36.215Z,100587.00
2018-12-23T18:20:07.073Z,100591.51
2018-12-23T18:22:36.461Z,100592.36
2018-12-23T18:25:06.356Z,100592.36
2018-12-23T18:27:35.741Z,100584.75
2018-12-23T18:30:05.723Z,100584.75
2018-12-23T18:32:35.147Z,100589.45
2018-12-23T18:35:04.580Z,100593.14
2018-12-23T18:37:33.990Z,100583.16
2018-12-23T18:40:03.963Z,100582.88
2018-12-23T18:42:33.361Z,100590.61
2018-12-23T18:45:02.978Z,100582.33
2018-12-23T18:47:32.388Z,100584.39
2018-12-23T18:50:01.844Z,100570.61
2018-12-23T18:52:31.246Z,100599.67
2018-12-23T18:55:00.680Z,100579.58
2018-12-23T18:57:31.305Z,100568.94
2018-12-23T19:00:00.750Z,100568.94
2018-12-23T19:02:32.289Z,100559.77
2018-12-23T19:05:01.737Z,100559.77
2018-12-23T19:07:31.258Z,100553.36
2018-12-23T19:10:01.300Z,100563.61
2018-12-23T19:12:42.927Z,100562.51
2018-12-23T19:15:34.664Z,100562.51
2018-12-23T19:18:28.116Z,100563.50
2018-12-23T19:21:03.434Z,100555.52
2018-12-23T19:23:41.473Z,100546.84
2018-12-23T19:26:36.719Z,100534.95
2018-12-23T19:29:17.330Z,100540.80
2018-12-23T19:31:49.797Z,100559.02
2018-12-23T19:34:42.095Z,100545.64
2018-12-23T19:37:17.547Z,100552.35
2018-12-23T19:39:58.453Z,100555.92
2018-12-23T19:42:40.100Z,100546.32
2018-12-23T19:45:31.915Z,100546.32
2018-12-23T19:48:19.670Z,100557.87
2018-12-23T19:50:58.564Z,100556.20
2018-12-23T19:53:43.174Z,100554.72
2018-12-23T19:56:21.850Z,100553.50
2018-12-23T19:59:13.475Z,100554.82
2018-12-23T20:02:06.959Z,100557.28
2018-12-23T20:05:00.787Z,100557.28
2018-12-23T20:07:45.255Z,100550.33
2018-12-23T20:10:23.695Z,100540.84
2018-12-23T20:13:18.742Z,100545.63
2018-12-23T20:16:03.066Z,100545.63
2018-12-23T20:19:07.275Z,100544.41
2018-12-23T20:21:51.570Z,100540.09
2018-12-23T20:24:30.261Z,100543.03
2018-12-23T20:27:12.000Z,100545.55
2018-12-23T20:30:07.026Z,100546.28
2018-12-23T20:33:02.358Z,100537.99
2018-12-23T20:35:38.017Z,100537.99
2018-12-23T20:38:31.341Z,100549.67
2018-12-23T20:41:07.711Z,100552.17
2018-12-23T20:43:49.875Z,100552.17
2018-12-23T20:46:22.329Z,100541.61
2018-12-23T20:49:09.778Z,100542.09
2018-12-23T20:52:15.773Z,100550.47
2018-12-23T20:55:13.766Z,100542.89
2018-12-23T20:57:58.280Z,100540.05
2018-12-23T21:00:56.174Z,100542.50
2018-12-23T21:04:01.963Z,100536.09
2018-12-23T21:06:40.150Z,100535.59
2018-12-23T21:09:21.846Z,100532.70
2018-12-23T21:12:09.507Z,100532.97
2018-12-23T21:15:00.171Z,100527.41
2018-12-23T21:17:53.969Z,100519.59
2018-12-23T21:20:32.373Z,100515.84
2018-12-23T21:23:16.585Z,100524.05
2018-12-23T21:25:57.446Z,100526.14
2018-12-23T21:28:45.271Z,100532.28
2018-12-23T21:31:32.879Z,100532.28
2018-12-23T21:34:26.537Z,100528.78
2018-12-23T21:37:04.622Z,100522.59
2018-12-23T21:39:48.323Z,100522.92
2018-12-23T21:42:32.886Z,100522.92
2018-12-23T21:45:17.128Z,100520.91
2018-12-23T21:48:07.095Z,100539.92
2018-12-23T21:51:14.467Z,100551.41
2018-12-23T21:54:03.749Z,100577.13
2018-12-23T21:56:51.315Z,100577.13
2018-12-23T21:59:26.532Z,100575.99
2018-12-23T22:02:10.856Z,100575.34
2018-12-23T22:04:46.115Z,100575.73
2018-12-23T22:07:44.618Z,100593.44
2018-12-23T22:10:17.144Z,100587.92
2018-12-23T22:12:55.040Z,100596.94
2018-12-23T22:15:24.528Z,100617.62
2018-12-23T22:17:55.793Z,100637.94
2018-12-23T22:20:25.035Z,100650.45
2018-12-23T22:22:54.453Z,100669.56
2018-12-23T22:25:23.850Z,100690.44
2018-12-23T22:27:53.235Z,100685.80
2018-12-23T22:30:22.621Z,100696.51
2018-12-23T22:32:52.052Z,100715.84
2018-12-23T22:35:21.460Z,100730.64
2018-12-23T22:37:50.842Z,100742.55
2018-12-23T22:40:20.324Z,100752.98
2018-12-23T22:42:50.097Z,100776.74
2018-12-23T22:45:19.489Z,100762.49
2018-12-23T22:47:48.919Z,100785.98
2018-12-23T22:50:18.368Z,100805.63
2018-12-23T22:52:47.798Z,100815.39
2018-12-23T22:55:17.426Z,100815.39
2018-12-23T22:57:46.868Z,100846.78
2018-12-23T23:00:18.029Z,100849.17
2018-12-23T23:02:47.455Z,100880.19
2018-12-23T23:05:17.016Z,100880.19
2018-12-23T23:07:46.425Z,100889.56
2018-12-23T23:10:15.858Z,100869.47
2018-12-23T23:12:45.326Z,100864.44
2018-12-23T23:15:14.807Z,100883.68
2018-12-23T23:17:44.223Z,100895.39
2018-12-23T23:20:13.669Z,100919.19
2018-12-23T23:22:43.165Z,100936.50
2018-12-23T23:25:12.582Z,100936.50
2018-12-23T23:27:41.960Z,100931.20
2018-12-23T23:30:11.390Z,100944.12
2018-12-23T23:32:40.775Z,100943.06
2018-12-23T23:35:10.216Z,100943.06
2018-12-23T23:37:39.609Z,100953.37
2018-12-23T23:40:09.022Z,100953.37
2018-12-23T23:42:38.469Z,101017.02
2018-12-23T23:45:07.879Z,100977.42
2018-12-23T23:47:37.277Z,100980.22
2018-12-23T23:50:06.763Z,100982.04
2018-12-23T23:52:36.150Z,100999.95
2018-12-23T23:55:05.628Z,101001.66
2018-12-23T23:57:35.033Z,101007.50
